Time;durP1;ratioP1;P1;durP2;ratioP2;P2;SDS_P1;SDS_P2;PMS_P1;PMS_P2;Temp;Humidity;BMP_temperature;BMP_pressure;BME280_temperature;BME280_humidity;BME280_pressure;Samples;Min_cycle;Max_cycle;Signal;HPM_P1;HPM_P2
2023/10/13 00:02:25;;;;;;;15.90;4.07;;;7.00;99.90;6.10;100139;;;;575565;247;35487;-78
2023/10/13 00:04:54;;;;;;;9.43;2.67;;;7.00;99.90;6.10;100135;;;;575584;247;35506;-80
2023/10/13 00:07:23;;;;;;;4.70;1.83;;;6.90;99.90;6.00;100146;;;;567086;249;24105;-79
2023/10/13 00:09:53;;;;;;;3.07;1.57;;;6.90;99.90;5.90;100148;;;;580803;245;24086;-78
2023/10/13 00:12:23;;;;;;;5.20;1.50;;;7.50;99.90;5.90;100155;;;;593667;239;24038;-80
2023/10/13 00:14:51;;;;;;;12.43;2.43;;;6.80;99.90;5.90;100149;;;;595543;237;24010;-80
2023/10/13 00:17:20;;;;;;;9.10;2.43;;;6.80;99.90;5.80;100145;;;;595600;237;24004;-80
2023/10/13 00:19:52;;;;;;;13.83;3.13;;;6.70;99.90;5.80;100140;;;;578883;244;24044;-79
2023/10/13 00:22:17;;;;;;;9.90;3.00;;;6.70;99.90;5.80;100138;;;;573121;245;24074;-80
2023/10/13 00:24:48;;;;;;;12.97;3.10;;;6.70;99.90;5.80;100139;;;;581347;247;24112;-79
2023/10/13 00:27:52;;;;;;;17.50;3.10;;;6.70;99.90;5.90;100144;;;;576628;246;24101;-80
2023/10/13 00:30:14;;;;;;;12.30;3.03;;;6.70;99.90;5.90;100135;;;;601010;238;24009;-81
2023/10/13 00:32:26;;;;;;;8.17;3.23;;;6.70;99.90;5.90;100135;;;;596382;237;24027;-80
2023/10/13 00:34:55;;;;;;;14.03;3.70;;;6.70;99.90;5.90;100152;;;;594967;237;24021;-79
2023/10/13 00:37:27;;;;;;;15.17;3.30;;;6.70;99.90;6.00;100142;;;;587278;243;24046;-81
2023/10/13 00:39:45;;;;;;;12.13;3.53;;;6.80;99.90;6.00;100147;;;;571187;246;24128;-80
2023/10/13 00:42:25;;;;;;;17.67;2.83;;;6.80;99.90;6.00;100149;;;;581053;244;24127;-79
2023/10/13 00:44:54;;;;;;;12.30;3.27;;;6.80;99.90;6.00;100143;;;;574426;244;24085;-80
2023/10/13 00:47:49;;;;;;;15.13;3.73;;;6.90;99.90;6.00;100132;;;;579144;248;24101;-82
2023/10/13 00:49:52;;;;;;;13.27;2.87;;;6.80;99.90;6.00;100140;;;;571185;248;24082;-80
2023/10/13 00:52:18;;;;;;;11.27;2.77;;;6.80;99.90;6.00;100132;;;;572082;248;24073;-81
2023/10/13 00:54:48;;;;;;;8.10;3.17;;;6.80;99.90;6.00;100142;;;;567061;249;24094;-79
2023/10/13 00:57:30;;;;;;;9.07;2.60;;;6.80;99.90;6.00;100147;;;;571002;248;35152;-80
2023/10/13 00:59:57;;;;;;;5.03;1.87;;;6.80;99.90;6.00;100141;;;;603663;237;24023;-80
2023/10/13 01:05:03;;;;;;;5.07;2.00;;;6.80;99.90;6.00;100137;;;;575657;247;24103;-78
2023/10/13 01:07:31;;;;;;;4.33;2.00;;;6.80;99.90;5.90;100148;;;;570578;248;24114;-81
2023/10/13 01:09:59;;;;;;;8.60;1.93;;;6.80;99.90;6.00;100147;;;;578778;244;24101;-80
2023/10/13 01:12:26;;;;;;;18.33;3.60;;;6.80;99.90;6.00;100147;;;;603610;238;24007;-80
2023/10/13 01:14:59;;;;;;;8.73;3.30;;;6.80;99.90;5.90;100157;;;;594635;239;24026;-80
2023/10/13 01:17:23;;;;;;;6.77;2.80;;;6.80;99.90;5.90;100161;;;;594874;237;24042;-79
2023/10/13 01:19:58;;;;;;;8.27;3.20;;;6.70;99.90;5.80;100160;;;;594284;237;24008;-81
2023/10/13 01:22:21;;;;;;;19.47;3.23;;;6.70;99.90;5.70;100164;;;;586655;243;24044;-80
2023/10/13 01:24:47;;;;;;;7.53;2.67;;;6.60;99.90;5.70;100149;;;;570145;245;24114;-80
2023/10/13 01:27:18;;;;;;;11.13;3.37;;;6.50;99.90;5.70;100152;;;;581836;245;24081;-80
2023/10/13 01:29:50;;;;;;;16.60;3.20;;;6.60;99.90;5.70;100151;;;;604757;236;25071;-80
2023/10/13 01:32:13;;;;;;;11.40;3.10;;;6.60;99.90;5.60;100150;;;;588346;238;24018;-80
2023/10/13 01:34:46;;;;;;;15.00;3.73;;;6.40;99.90;5.60;100161;;;;589945;238;34850;-81
2023/10/13 01:37:10;;;;;;;10.52;2.60;;;6.40;99.90;5.60;100163;;;;589968;237;34809;-80
2023/10/13 01:39:38;;;;;;;10.13;3.17;;;6.40;99.90;5.50;100169;;;;589743;237;34892;-80
2023/10/13 01:42:06;;;;;;;2.73;2.23;;;6.40;99.90;5.50;100167;;;;587143;243;24045;-80
2023/10/13 01:44:33;;;;;;;8.57;2.47;;;6.40;99.90;5.50;100156;;;;565650;248;35166;-79
2023/10/13 01:47:08;;;;;;;3.40;1.83;;;6.40;99.90;5.40;100163;;;;579469;247;24105;-80
2023/10/13 01:49:47;;;;;;;10.80;1.57;;;6.30;99.90;5.40;100170;;;;570339;248;24081;-80
2023/10/13 01:52:15;;;;;;;10.73;2.73;;;6.30;99.90;5.40;100171;;;;576688;244;24049;-80
2023/10/13 01:54:40;;;;;;;4.70;2.60;;;6.20;99.90;5.30;100165;;;;580828;247;24106;-80
2023/10/13 01:57:13;;;;;;;6.20;2.73;;;6.20;99.90;5.30;100161;;;;580862;247;24120;-80
2023/10/13 01:59:43;;;;;;;10.57;2.90;;;6.20;99.90;5.30;100173;;;;588084;238;24042;-80
2023/10/13 02:02:06;;;;;;;5.07;3.37;;;6.20;99.90;5.30;100178;;;;594889;237;24018;-80
2023/10/13 02:04:33;;;;;;;8.07;3.33;;;6.20;99.90;5.30;100178;;;;594129;238;24084;-79
2023/10/13 02:07:01;;;;;;;13.93;3.10;;;6.10;99.90;5.20;100174;;;;578110;243;24071;-80
2023/10/13 02:09:29;;;;;;;13.60;3.50;;;6.10;99.90;5.20;100183;;;;570076;248;24075;-80
2023/10/13 02:11:57;;;;;;;13.00;3.00;;;6.10;99.90;5.10;100170;;;;579166;246;24062;-80
2023/10/13 02:14:25;;;;;;;15.37;3.47;;;6.00;99.90;5.10;100171;;;;603993;238;25084;-80
2023/10/13 02:17:11;;;;;;;10.53;3.07;;;6.00;99.90;5.10;100180;;;;594087;239;24046;-81
2023/10/13 02:19:27;;;;;;;16.80;3.50;;;5.90;99.90;5.00;100171;;;;578879;243;24065;-80
2023/10/13 02:21:58;;;;;;;11.73;3.27;;;5.90;99.90;5.00;100180;;;;570800;244;24115;-80
2023/10/13 02:24:29;;;;;;;14.73;2.97;;;5.80;99.90;4.90;100173;;;;575576;249;25123;-80
2023/10/13 02:26:48;;;;;;;10.80;3.10;;;5.80;99.90;5.00;100175;;;;580358;247;24087;-80
2023/10/13 02:29:17;;;;;;;9.20;2.90;;;5.80;99.90;5.00;100181;;;;581085;245;24089;-81
2023/10/13 02:31:54;;;;;;;12.23;3.47;;;5.90;99.90;5.10;100160;;;;604081;237;23992;-79
2023/10/13 02:34:13;;;;;;;8.03;2.30;;;5.90;99.90;5.10;100165;;;;593294;239;24064;-80
2023/10/13 02:36:47;;;;;;;7.37;3.00;;;5.90;99.90;5.10;100177;;;;594628;238;24005;-78
2023/10/13 02:39:16;;;;;;;14.30;3.70;;;5.90;99.90;5.10;100174;;;;577388;247;24093;-79
2023/10/13 02:41:39;;;;;;;15.07;2.50;;;5.90;99.90;5.10;100180;;;;579095;244;24088;-79
2023/10/13 02:44:08;;;;;;;7.83;2.87;;;5.90;99.90;5.10;100177;;;;588091;242;24076;-79
2023/10/13 02:46:39;;;;;;;11.63;3.03;;;5.90;99.90;5.00;100189;;;;578672;244;24056;-79
2023/10/13 02:49:13;;;;;;;10.30;3.60;;;6.20;99.90;5.00;100187;;;;587209;244;24092;-80
2023/10/13 02:51:43;;;;;;;11.90;3.07;;;5.90;99.90;5.00;100196;;;;587408;244;24071;-80
2023/10/13 02:54:11;;;;;;;13.50;3.30;;;5.90;99.90;5.00;100201;;;;581861;243;35149;-80
2023/10/13 02:56:59;;;;;;;13.80;3.20;;;5.80;99.90;4.90;100207;;;;586900;242;25433;-80
2023/10/13 02:59:12;;;;;;;8.10;3.07;;;5.80;99.90;4.90;100207;;;;587310;242;24152;-80
2023/10/13 03:01:37;;;;;;;9.97;2.43;;;5.80;99.90;4.90;100194;;;;586939;242;24100;-80
2023/10/13 03:04:12;;;;;;;12.20;2.87;;;5.70;99.90;4.90;100201;;;;587026;244;24072;-80
2023/10/13 03:06:35;;;;;;;18.63;3.20;;;5.70;99.90;4.90;100196;;;;586583;242;24060;-79
2023/10/13 03:09:14;;;;;;;13.83;2.80;;;5.70;99.90;4.90;100202;;;;587059;242;24047;-80
2023/10/13 03:11:42;;;;;;;10.53;2.83;;;5.70;99.90;4.90;100216;;;;580885;245;24105;-81
2023/10/13 03:14:23;;;;;;;6.97;3.13;;;5.70;99.90;4.80;100218;;;;580801;246;24063;-79
2023/10/13 03:16:38;;;;;;;9.57;3.17;;;5.70;99.90;4.70;100220;;;;565436;247;24145;-80
2023/10/13 03:19:08;;;;;;;11.00;3.37;;;5.60;99.90;4.70;100220;;;;580918;247;24069;-81
2023/10/13 03:21:36;;;;;;;11.50;2.90;;;5.60;99.90;4.70;100223;;;;574225;244;24090;-81
2023/10/13 03:24:06;;;;;;;8.40;3.00;;;5.50;99.90;4.60;100220;;;;580868;245;24077;-80
2023/10/13 03:26:36;;;;;;;13.93;3.47;;;5.50;99.90;4.60;100211;;;;580640;247;24113;-80
2023/10/13 03:29:07;;;;;;;14.70;3.43;;;5.40;99.90;4.50;100206;;;;575628;248;24084;-79
2023/10/13 03:31:36;;;;;;;11.87;3.30;;;5.40;99.90;4.50;100199;;;;571915;248;24076;-80
2023/10/13 03:34:00;;;;;;;8.53;2.70;;;5.40;99.90;4.50;100199;;;;603284;238;24038;-80
2023/10/13 03:39:14;;;;;;;14.33;3.03;;;5.30;99.90;4.40;100199;;;;586628;244;24029;-81
2023/10/13 03:41:41;;;;;;;8.17;2.47;;;5.30;99.90;4.30;100205;;;;570337;247;24058;-81
2023/10/13 03:44:15;;;;;;;9.93;2.80;;;5.30;99.90;4.30;100201;;;;578837;247;24110;-82
2023/10/13 03:46:40;;;;;;;10.33;2.50;;;5.20;99.90;4.40;100198;;;;580343;246;24079;-81
2023/10/13 03:49:06;;;;;;;9.90;3.23;;;5.20;99.90;4.40;100201;;;;581185;245;24082;-80
2023/10/13 03:51:33;;;;;;;17.63;3.97;;;5.30;99.90;4.40;100207;;;;605541;236;24014;-81
2023/10/13 03:54:07;;;;;;;13.33;3.43;;;5.20;99.90;4.40;100199;;;;604784;237;24007;-81
2023/10/13 03:56:41;;;;;;;15.40;3.70;;;5.20;99.90;4.40;100205;;;;595364;237;24028;-80
2023/10/13 03:59:13;;;;;;;15.97;3.27;;;5.20;99.90;4.30;100196;;;;595305;238;24025;-81
2023/10/13 04:04:33;;;;;;;9.70;2.77;;;5.20;99.90;4.20;100208;;;;578718;244;24030;-80
2023/10/13 04:17:26;;;;;;;11.47;3.07;;;5.00;99.90;4.20;100206;;;;594931;238;24031;-80
2023/10/13 04:33:52;;;;;;;13.57;3.60;;;5.30;99.90;4.40;100161;;;;570122;248;25132;-80
2023/10/13 04:41:41;;;;;;;9.50;3.33;;;5.30;99.90;4.40;100184;;;;577732;244;24061;-79
2023/10/13 04:57:32;;;;;;;6.27;1.83;;;5.20;99.90;4.30;100175;;;;579161;245;24043;-80
2023/10/13 05:02:43;;;;;;;8.43;3.30;;;5.20;99.90;4.30;100178;;;;580385;246;24184;-80
2023/10/13 06:30:06;;;;;;;9.10;3.77;;;7.60;99.90;7.10;100210;;;;604679;236;24070;-80
2023/10/13 06:32:33;;;;;;;9.23;3.33;;;8.20;99.90;7.60;100218;;;;594783;238;24077;-80
2023/10/13 06:35:18;;;;;;;8.73;4.80;;;9.50;99.90;9.20;100221;;;;578559;243;24045;-80
2023/10/13 06:37:41;;;;;;;10.40;3.90;;;11.40;99.90;11.20;100222;;;;571017;248;24074;-80
2023/10/13 06:40:07;;;;;;;11.67;3.47;;;13.10;99.90;12.90;100229;;;;569689;248;25113;-80
2023/10/13 06:42:34;;;;;;;6.63;4.10;;;13.00;99.90;14.40;100230;;;;581023;247;24085;-80
2023/10/13 06:45:12;;;;;;;9.23;3.73;;;14.70;99.90;15.70;100245;;;;571995;248;24087;-80
2023/10/13 06:47:32;;;;;;;8.03;3.50;;;16.00;99.90;16.90;100245;;;;594944;238;24011;-80
2023/10/13 06:50:00;;;;;;;6.23;3.07;;;18.60;99.90;18.20;100248;;;;594363;237;24018;-78
2023/10/13 06:52:29;;;;;;;7.53;2.30;;;19.90;99.90;19.30;100243;;;;594196;237;23083;-79
2023/10/13 06:54:56;;;;;;;8.33;3.23;;;19.80;99.90;20.40;100252;;;;594219;237;23036;-79
2023/10/13 06:57:23;;;;;;;5.53;2.37;;;20.90;99.90;20.90;100238;;;;587345;241;24027;-80
2023/10/13 06:59:53;;;;;;;11.50;2.93;;;21.60;99.90;21.10;100235;;;;603790;236;24008;-79
2023/10/13 07:02:22;;;;;;;8.50;3.03;;;21.90;99.90;21.30;100230;;;;594239;238;24014;-80
2023/10/13 07:05:07;;;;;;;12.63;2.70;;;22.10;99.90;21.30;100223;;;;586831;243;24025;-79
2023/10/13 07:07:22;;;;;;;5.67;2.40;;;21.70;99.90;20.60;100224;;;;569823;248;24087;-78
2023/10/13 07:09:55;;;;;;;8.97;2.57;;;21.70;99.90;20.00;100225;;;;570021;248;24060;-81
2023/10/13 07:12:27;;;;;;;5.80;2.50;;;21.10;99.90;19.10;100222;;;;570174;248;24077;-81
2023/10/13 07:14:51;;;;;;;5.33;2.47;;;20.50;99.90;18.30;100218;;;;578619;246;24062;-81
2023/10/13 07:17:15;;;;;;;7.20;2.90;;;19.80;99.90;17.90;100219;;;;569223;248;23131;-81
2023/10/13 07:19:53;;;;;;;5.50;2.57;;;19.20;99.90;18.20;100216;;;;569440;247;23081;-81
2023/10/13 07:22:22;;;;;;;7.20;2.90;;;19.10;99.90;19.00;100209;;;;591953;239;24044;-82
2023/10/13 07:24:49;;;;;;;7.57;2.80;;;19.70;99.90;19.70;100215;;;;595650;238;23999;-80
2023/10/13 07:27:23;;;;;;;8.13;2.90;;;20.30;99.90;20.70;100216;;;;605272;237;23021;-82
2023/10/13 07:29:56;;;;;;;5.23;2.77;;;21.20;99.90;21.30;100203;;;;588199;244;24026;-81
2023/10/13 07:32:24;;;;;;;8.80;3.30;;;21.90;99.60;21.10;100215;;;;578046;244;24024;-81
2023/10/13 07:34:49;;;;;;;4.80;2.40;;;21.50;99.00;20.40;100216;;;;572834;245;24075;-81
2023/10/13 07:37:16;;;;;;;9.60;3.00;;;21.50;99.00;19.80;100215;;;;592108;238;24048;-81
2023/10/13 07:39:44;;;;;;;6.40;2.90;;;21.00;99.30;19.30;100214;;;;594763;238;23992;-81
2023/10/13 07:42:22;;;;;;;8.07;2.73;;;20.40;99.60;18.90;100209;;;;563079;247;23084;-80
2023/10/13 07:44:46;;;;;;;5.37;2.60;;;19.50;99.90;18.50;100220;;;;572083;248;23085;-81
2023/10/13 07:47:17;;;;;;;6.47;2.53;;;19.20;99.90;18.30;100225;;;;569254;248;23073;-80
2023/10/13 07:49:43;;;;;;;6.90;2.63;;;19.20;99.90;18.00;100214;;;;572210;247;24151;-81
2023/10/13 07:54:55;;;;;;;6.70;2.77;;;18.60;99.90;17.60;100217;;;;590461;238;24035;-80
2023/10/13 07:57:17;;;;;;;7.93;2.27;;;18.40;99.90;17.60;100215;;;;577611;244;24028;-80
2023/10/13 07:59:53;;;;;;;5.73;2.13;;;18.30;99.90;17.50;100208;;;;578881;248;24084;-80
2023/10/13 08:02:33;;;;;;;5.47;2.13;;;18.10;99.90;17.20;100200;;;;587151;244;24118;-81
2023/10/13 08:04:43;;;;;;;11.73;2.50;;;17.70;99.90;16.90;100198;;;;592628;239;24015;-81
2023/10/13 08:07:16;;;;;;;2.70;1.83;;;17.40;99.90;16.70;100208;;;;562649;245;24085;-81
2023/10/13 08:09:51;;;;;;;7.23;2.00;;;17.40;99.90;16.50;100206;;;;564806;250;24121;-81
2023/10/13 08:12:21;;;;;;;4.17;2.17;;;17.20;99.90;16.40;100208;;;;563331;249;24109;-82
2023/10/13 08:14:45;;;;;;;8.93;1.80;;;16.80;99.90;16.10;100203;;;;580757;245;25113;-80
2023/10/13 08:17:11;;;;;;;2.53;1.40;;;16.80;99.90;15.90;100199;;;;566997;249;24092;-81
2023/10/13 08:19:56;;;;;;;5.00;2.40;;;16.60;99.90;15.80;100190;;;;565330;248;35078;-80
2023/10/13 08:27:48;;;;;;;13.50;2.10;;;16.20;99.90;15.50;100183;;;;570648;248;24067;-80
2023/10/13 08:33:16;;;;;;;7.40;3.17;;;16.00;99.90;15.30;100169;;;;570379;248;24063;-80
2023/10/13 08:35:33;;;;;;;6.43;2.37;;;16.00;99.90;15.20;100172;;;;577941;246;24110;-80
2023/10/13 09:04:27;;;;;;;7.27;2.87;;;14.30;99.90;13.60;100148;;;;571623;248;24108;-81
2023/10/13 09:09:34;;;;;;;7.73;3.37;;;14.20;99.90;13.40;100157;;;;579463;245;24072;-81
2023/10/13 09:14:37;;;;;;;6.23;3.37;;;14.00;99.90;13.10;100154;;;;588767;239;24056;-80
2023/10/13 09:17:12;;;;;;;6.33;3.20;;;13.90;99.90;13.10;100153;;;;577905;243;24047;-81
2023/10/13 09:19:57;;;;;;;6.90;3.30;;;13.70;99.90;13.00;100151;;;;568504;248;24061;-81
2023/10/13 09:22:35;;;;;;;5.07;3.30;;;13.70;99.90;12.90;100150;;;;572289;248;24079;-81
2023/10/13 09:25:00;;;;;;;9.03;3.00;;;13.60;99.90;12.80;100151;;;;567820;249;24051;-82
2023/10/13 09:27:32;;;;;;;8.00;3.47;;;13.50;99.90;12.80;100142;;;;586665;244;24090;-79
2023/10/13 09:30:09;;;;;;;10.40;3.13;;;13.40;99.90;12.80;100142;;;;578788;248;24071;-79
2023/10/13 09:32:28;;;;;;;5.47;2.37;;;13.40;99.90;12.70;100134;;;;566941;249;24077;-79
2023/10/13 09:34:54;;;;;;;3.97;2.27;;;13.40;99.90;12.70;100133;;;;570380;246;24111;-79
2023/10/13 09:37:26;;;;;;;5.70;2.17;;;13.40;99.90;12.70;100127;;;;567177;249;24072;-80
2023/10/13 09:39:57;;;;;;;9.60;2.07;;;13.40;99.90;12.60;100118;;;;572501;244;24143;-79
2023/10/13 09:42:18;;;;;;;8.53;2.73;;;13.30;99.90;12.60;100111;;;;571548;248;24075;-79
2023/10/13 09:44:51;;;;;;;8.07;3.33;;;13.30;99.90;12.60;100114;;;;591748;239;24005;-80
2023/10/13 09:47:18;;;;;;;9.83;3.53;;;13.20;99.90;12.60;100100;;;;565801;248;24093;-80
2023/10/13 09:49:47;;;;;;;9.65;4.18;;;13.20;99.90;12.60;100082;;;;566272;247;46092;-81
2023/10/13 09:52:19;;;;;;;5.03;2.87;;;13.20;99.90;12.50;100088;;;;570270;246;24121;-80
2023/10/13 09:54:48;;;;;;;9.80;3.23;;;13.20;99.90;12.50;100070;;;;578818;244;24068;-79
2023/10/13 09:57:13;;;;;;;10.97;3.67;;;13.20;99.90;12.40;100063;;;;579247;247;24049;-81
2023/10/13 09:59:52;;;;;;;14.80;3.30;;;13.10;99.90;12.40;100069;;;;579109;244;24008;-78
2023/10/13 10:02:18;;;;;;;8.83;2.77;;;13.10;99.90;12.50;100073;;;;594885;237;24037;-81
2023/10/13 10:04:51;;;;;;;7.10;2.97;;;13.10;99.90;12.50;100070;;;;588014;242;24025;-82
2023/10/13 10:07:19;;;;;;;12.00;3.67;;;13.20;99.90;12.50;100063;;;;594132;238;24022;-81
2023/10/13 10:09:43;;;;;;;6.50;3.23;;;13.20;99.90;12.60;100057;;;;591329;238;24041;-81
2023/10/13 10:12:22;;;;;;;3.13;2.30;;;13.30;99.90;12.80;100062;;;;578828;243;24049;-81
2023/10/13 10:15:43;;;;;;;5.03;2.47;;;13.40;99.90;13.00;100048;;;;598339;238;24074;-81
2023/10/13 10:18:04;;;;;;;13.40;2.70;;;14.00;99.90;13.40;100040;;;;589614;238;24034;-80
2023/10/13 10:20:41;;;;;;;4.90;2.80;;;14.30;99.90;13.70;100018;;;;562464;248;24090;-81
2023/10/13 10:23:02;;;;;;;6.60;2.67;;;14.50;99.90;13.80;100014;;;;581639;244;25166;-81
2023/10/13 10:25:37;;;;;;;11.77;3.50;;;14.50;99.90;13.80;100014;;;;570484;248;24100;-81
2023/10/13 10:28:07;;;;;;;11.73;3.07;;;14.60;99.90;13.90;100012;;;;569290;247;24113;-81
2023/10/13 10:30:42;;;;;;;3.70;1.97;;;14.60;99.90;14.10;100005;;;;571999;248;24152;-81
2023/10/13 10:33:23;;;;;;;4.33;2.20;;;14.80;99.90;14.40;100005;;;;568765;247;24110;-81
2023/10/13 10:35:50;;;;;;;7.80;2.53;;;15.00;99.90;14.60;99991;;;;573448;244;24076;-82
2023/10/13 10:41:00;;;;;;;4.83;2.10;;;15.30;99.90;14.50;99988;;;;578603;246;24083;-81
2023/10/13 10:43:46;;;;;;;13.63;2.37;;;15.20;99.90;14.40;99987;;;;567084;242;24066;-81
2023/10/13 10:46:05;;;;;;;9.47;2.33;;;15.10;99.90;14.30;99981;;;;570214;248;24106;-81
2023/10/13 10:48:34;;;;;;;6.87;2.37;;;14.90;99.90;14.20;99975;;;;598280;237;34911;-80
2023/10/13 10:51:13;;;;;;;13.77;2.37;;;14.80;99.90;14.10;99970;;;;593929;238;24055;-81
2023/10/13 10:53:44;;;;;;;6.30;1.97;;;14.70;99.90;14.00;99953;;;;565829;249;24035;-80
2023/10/13 10:58:59;;;;;;;5.37;2.10;;;14.50;99.90;13.80;99945;;;;595098;238;24107;-80
2023/10/13 11:01:33;;;;;;;4.77;1.97;;;14.50;99.90;13.70;99956;;;;595706;238;24045;-80
2023/10/13 11:04:08;;;;;;;8.13;2.60;;;14.40;99.90;13.70;99946;;;;586982;244;24050;-82
2023/10/13 11:06:38;;;;;;;4.47;1.97;;;14.40;99.90;13.80;99944;;;;572859;244;24073;-81
2023/10/13 11:11:57;;;;;;;4.37;2.30;;;14.70;99.90;14.10;99936;;;;581556;245;24085;-80
2023/10/13 11:14:26;;;;;;;13.50;2.30;;;14.70;99.90;14.20;99936;;;;575969;249;24110;-80
2023/10/13 11:17:00;;;;;;;4.63;1.47;;;14.80;99.90;14.30;99932;;;;570370;248;24129;-80
2023/10/13 11:19:37;;;;;;;5.83;2.40;;;14.90;99.90;14.40;99925;;;;568760;248;24111;-79
2023/10/13 11:25:11;;;;;;;3.20;1.83;;;15.10;99.90;14.60;99913;;;;604169;236;24053;-81
2023/10/13 11:27:55;;;;;;;9.87;2.33;;;15.20;99.90;14.50;99900;;;;587272;243;24038;-82
2023/10/13 11:30:14;;;;;;;10.93;2.40;;;15.20;99.90;14.60;99899;;;;571440;248;26225;-80
2023/10/13 11:32:46;;;;;;;6.03;2.37;;;15.30;99.90;14.70;99897;;;;571814;247;24064;-81
2023/10/13 11:35:20;;;;;;;8.85;3.05;;;15.40;99.90;14.80;99887;;;;598074;237;34817;-81
2023/10/13 11:37:43;;;;;;;6.43;2.30;;;15.40;99.90;14.80;99877;;;;594369;237;24039;-81
2023/10/13 11:40:12;;;;;;;7.47;2.70;;;15.40;99.90;14.80;99883;;;;594043;237;24001;-80
2023/10/13 11:42:43;;;;;;;5.93;3.17;;;15.50;99.90;14.80;99890;;;;574591;244;24069;-80
2023/10/13 11:47:59;;;;;;;6.43;2.67;;;15.60;99.90;14.90;99872;;;;570260;248;24067;-80
2023/10/13 11:50:32;;;;;;;5.03;2.57;;;15.50;99.90;14.90;99862;;;;602963;238;24013;-81
2023/10/13 11:52:49;;;;;;;11.57;3.57;;;15.50;99.90;14.90;99854;;;;594934;237;24033;-80
2023/10/13 11:55:17;;;;;;;11.43;2.87;;;15.50;99.90;14.90;99843;;;;566237;249;24095;-80
2023/10/13 11:57:45;;;;;;;6.47;3.57;;;15.50;99.90;14.80;99845;;;;603847;237;24126;-81
2023/10/13 12:00:50;;;;;;;6.33;3.67;;;15.50;99.90;14.90;99844;;;;562812;245;24058;-80
2023/10/13 12:05:49;;;;;;;10.27;4.03;;;15.50;99.90;15.10;99821;;;;578873;244;24122;-81
2023/10/13 12:08:19;;;;;;;7.37;3.17;;;15.70;99.90;15.20;99806;;;;577852;248;24231;-81
2023/10/13 12:10:49;;;;;;;11.07;3.63;;;16.00;99.90;15.40;99802;;;;580504;245;23080;-80
2023/10/13 12:13:05;;;;;;;9.20;4.07;;;15.90;99.90;15.50;99804;;;;603633;237;24049;-79
2023/10/13 12:15:36;;;;;;;7.23;3.97;;;16.10;99.90;15.70;99804;;;;595081;237;24034;-80
2023/10/13 12:17:59;;;;;;;8.03;4.00;;;16.30;99.90;15.60;99809;;;;587271;243;24143;-81
2023/10/13 12:20:33;;;;;;;7.90;3.70;;;16.30;99.90;15.60;99811;;;;570602;248;24074;-80
2023/10/13 12:23:15;;;;;;;7.47;4.00;;;16.20;99.90;15.50;99813;;;;578174;244;24067;-79
2023/10/13 12:28:12;;;;;;;8.90;4.97;;;16.00;99.90;15.20;99795;;;;576292;248;24129;-82
2023/10/13 12:30:48;;;;;;;7.13;4.33;;;15.90;99.90;15.10;99788;;;;580345;247;24098;-80
2023/10/13 12:33:09;;;;;;;10.03;4.90;;;15.80;99.90;15.00;99777;;;;580224;247;24156;-80
2023/10/13 12:49:15;;;;;;;10.13;4.90;;;15.50;99.90;14.90;99734;;;;603799;236;24148;-80
2023/10/13 12:54:23;;;;;;;9.87;5.97;;;15.50;99.90;14.90;99725;;;;575498;246;24115;-80
2023/10/13 12:56:45;;;;;;;10.60;5.10;;;15.50;99.90;14.90;99715;;;;573697;244;24054;-80
2023/10/13 12:59:17;;;;;;;18.03;5.83;;;15.50;99.90;15.00;99707;;;;579006;247;24047;-80
2023/10/13 13:01:44;;;;;;;13.57;6.40;;;15.60;99.90;14.90;99707;;;;569357;247;24063;-81
2023/10/13 13:04:21;;;;;;;12.70;5.80;;;15.60;99.90;14.80;99689;;;;591847;239;25098;-81
2023/10/13 13:06:49;;;;;;;14.33;6.30;;;15.50;99.90;14.90;99690;;;;591430;239;24051;-80
2023/10/13 13:09:25;;;;;;;14.03;6.10;;;15.50;99.90;14.80;99684;;;;573473;244;24107;-81
2023/10/13 13:11:48;;;;;;;10.47;5.83;;;15.40;99.90;14.80;99676;;;;570369;247;24059;-82
2023/10/13 13:14:14;;;;;;;11.43;5.80;;;15.40;99.90;14.70;99666;;;;569703;248;24065;-81
2023/10/13 13:16:42;;;;;;;13.70;6.57;;;15.30;99.90;14.70;99657;;;;569905;248;24090;-79
2023/10/13 13:19:14;;;;;;;10.10;5.83;;;15.30;99.90;14.70;99656;;;;591458;239;25141;-81
2023/10/13 13:21:40;;;;;;;14.43;7.17;;;15.30;99.90;14.60;99653;;;;578031;242;24073;-80
2023/10/13 13:24:13;;;;;;;13.60;7.20;;;15.20;99.90;14.50;99658;;;;571312;247;24073;-80
2023/10/13 13:26:39;;;;;;;13.47;6.03;;;15.10;99.90;14.40;99659;;;;566480;249;24148;-81
2023/10/13 13:29:04;;;;;;;12.13;7.23;;;15.00;99.90;14.40;99653;;;;594765;238;24038;-80
2023/10/13 13:31:32;;;;;;;20.57;7.90;;;15.00;99.90;14.30;99647;;;;595126;237;24024;-80
2023/10/13 13:34:01;;;;;;;19.97;7.83;;;14.90;99.90;14.30;99645;;;;563345;245;24086;-80
2023/10/13 13:36:30;;;;;;;15.07;7.47;;;14.80;99.90;14.20;99645;;;;577958;244;24068;-81
2023/10/13 13:39:00;;;;;;;11.33;7.50;;;14.80;99.90;14.10;99636;;;;570445;248;24057;-80
2023/10/13 13:41:25;;;;;;;16.33;7.73;;;14.80;99.90;14.10;99637;;;;575976;249;24066;-81
2023/10/13 13:43:56;;;;;;;16.10;8.07;;;14.70;99.90;14.00;99638;;;;578754;247;24097;-80
2023/10/13 13:46:40;;;;;;;12.20;7.77;;;14.60;99.90;13.90;99617;;;;569155;247;24125;-80
2023/10/13 13:48:59;;;;;;;13.90;8.13;;;14.50;99.90;13.80;99616;;;;573188;244;24102;-80
2023/10/13 13:51:30;;;;;;;17.47;9.73;;;14.40;99.90;13.80;99607;;;;572189;247;24059;-80
2023/10/13 13:53:57;;;;;;;15.07;9.27;;;14.40;99.90;13.70;99602;;;;594229;238;23998;-80
2023/10/13 13:56:28;;;;;;;18.53;9.40;;;14.30;99.90;13.70;99593;;;;594672;238;24011;-79
2023/10/13 13:58:56;;;;;;;17.83;8.90;;;14.30;99.90;13.70;99582;;;;574192;240;24073;-80
2023/10/13 14:01:29;;;;;;;15.77;10.03;;;14.20;99.90;13.60;99578;;;;579085;247;24074;-80
2023/10/13 14:04:02;;;;;;;14.97;9.77;;;14.20;99.90;13.60;99575;;;;569817;248;24117;-80
2023/10/13 14:06:29;;;;;;;17.67;10.43;;;14.20;99.90;13.60;99562;;;;580415;247;24111;-80
2023/10/13 14:08:59;;;;;;;15.13;8.43;;;14.20;99.90;13.60;99554;;;;573742;241;24090;-81
2023/10/13 14:14:33;;;;;;;21.37;11.70;;;14.20;99.90;13.60;99542;;;;591487;239;24013;-80
2023/10/13 14:16:47;;;;;;;23.50;10.97;;;14.30;99.90;13.60;99534;;;;584813;239;24033;-80
2023/10/13 14:19:15;;;;;;;21.47;12.30;;;14.20;99.90;13.60;99534;;;;566579;249;24090;-82
2023/10/13 14:21:40;;;;;;;23.27;12.97;;;14.20;99.90;13.60;99523;;;;574817;249;24080;-82
2023/10/13 14:24:14;;;;;;;21.03;11.93;;;14.20;99.90;13.60;99520;;;;569985;248;24150;-80
2023/10/13 14:26:37;;;;;;;17.87;10.17;;;14.20;99.90;13.60;99509;;;;573899;244;24061;-80
2023/10/13 14:29:14;;;;;;;20.17;11.73;;;14.20;99.90;13.60;99507;;;;570612;248;24100;-81
2023/10/13 14:31:39;;;;;;;21.77;13.03;;;14.20;99.90;13.60;99500;;;;570164;248;24091;-82
2023/10/13 14:34:10;;;;;;;22.37;13.33;;;14.20;99.90;13.60;99487;;;;577024;247;24100;-82
2023/10/13 14:36:37;;;;;;;15.60;9.43;;;14.20;99.90;13.60;99485;;;;573234;246;24066;-81
2023/10/13 14:39:10;;;;;;;22.63;12.90;;;14.20;99.90;13.60;99478;;;;570056;246;24104;-81
2023/10/13 14:41:38;;;;;;;23.57;14.50;;;14.20;99.90;13.60;99483;;;;569711;247;24063;-81
2023/10/13 14:44:06;;;;;;;20.40;12.83;;;14.20;99.90;13.60;99478;;;;592056;238;24111;-81
2023/10/13 14:46:39;;;;;;;27.43;15.30;;;14.20;99.90;13.60;99476;;;;603985;237;24066;-82
2023/10/13 14:49:06;;;;;;;25.03;14.63;;;14.30;99.90;13.60;99468;;;;594481;238;24027;-81
2023/10/13 14:51:39;;;;;;;26.90;14.00;;;14.30;99.90;13.70;99464;;;;575814;247;24121;-81
2023/10/13 14:54:03;;;;;;;23.87;14.63;;;14.30;99.90;13.70;99449;;;;570390;247;24103;-81
2023/10/13 14:56:34;;;;;;;26.97;14.87;;;14.30;99.90;13.70;99446;;;;578965;244;24062;-81
2023/10/13 14:58:58;;;;;;;22.30;12.50;;;14.30;99.90;13.70;99446;;;;591557;238;24020;-81
2023/10/13 15:01:26;;;;;;;26.57;14.10;;;14.30;99.90;13.70;99435;;;;562575;247;24109;-81
2023/10/13 15:03:57;;;;;;;25.97;14.63;;;14.30;99.90;13.70;99416;;;;573908;244;24158;-81
2023/10/13 15:09:10;;;;;;;24.07;14.43;;;14.20;99.90;13.60;99403;;;;593275;239;24102;-80